Weather History for KIIY - December, 2013

Change the Weather History Date:

Sunday, December 8, 2013

  Actual Average (KDBN) Record (KDBN)
Temperature  
Mean Temperature 42 °F -  
Max Temperature 46 °F 62 °F 80 °F (1951)
Min Temperature 39 °F 35 °F 19 °F (1977)
Degree Days  
Heating Degree Days 22    
Moisture  
Dew Point 43 °F    
Average Humidity 100    
Maximum Humidity 100    
Minimum Humidity 100    
Precipitation  
Precipitation 0.00 in - - ()
Sea Level Pressure  
Sea Level Pressure 30.29 in    
Wind  
Wind Speed 7 mph (ENE)    
Max Wind Speed 10 mph    
Max Gust Speed 17 mph    
Visibility 3 miles    
Events Rain    
Averages and records for this station are not official NWS values.
T = Trace of Precipitation, MM = Missing Value Source: NWS Daily Summary

Daily Weather History Graph

Daily Weather History Graph

Search for Another Location

Airport or City:

Trip Planner

Search our weather history database for the weather conditions in past years. The results will help you decide how hot, cold, wet, or windy it might be!

Date:

Astronomy

Dec. 08, 2013 Rise Set
Actual Time 7:23 AM EST 5:22 PM EST
Civil Twilight 6:56 AM EST 5:50 PM EST
Nautical Twilight 6:25 AM EST 6:21 PM EST
Astronomical Twilight 5:55 AM EST 6:51 PM EST
Moon 11:56 AM EST (12/8) 11:56 PM EST (12/8)
Length of Visible Light 10h 53m
Length of Day
9h 58m
Waxing Crescent, 40% of the Moon is Illuminated
Dec 8
Waxing Crescent
Dec 9
First Quarter
Dec 17
Full
Dec 25
Last Quarter
Jan 1
New

Hourly Weather History & Observations

Time (EST) Temp. Windchill Dew Point Humidity Pressure Visibility Wind Dir Wind Speed Gust Speed Precip Events Conditions
12:15 AM 46.4 °F 44.3 °F 46.4 °F 100% 30.32 in 4.0 mi East 4.6 mph - N/A   Light Drizzle
12:35 AM 46.4 °F 42.9 °F 46.4 °F 100% 30.32 in 7.0 mi East 6.9 mph - N/A   Overcast
12:55 AM 46.4 °F 43.5 °F 46.4 °F 100% 30.33 in 5.0 mi East 5.8 mph - N/A   Overcast
1:15 AM 46.4 °F 42.9 °F 46.4 °F 100% 30.32 in 3.0 mi East 6.9 mph - N/A Rain Rain
1:35 AM 46.4 °F 41.9 °F 46.4 °F 100% 30.31 in 3.0 mi East 9.2 mph 16.1 mph N/A   Drizzle
1:55 AM 46.4 °F 43.5 °F 46.4 °F 100% 30.31 in 3.0 mi East 5.8 mph - N/A   Light Drizzle
2:15 AM 46.4 °F 42.4 °F 46.4 °F 100% 30.31 in 4.0 mi ENE 8.1 mph - N/A   Drizzle
2:35 AM 44.6 °F 41.4 °F 44.6 °F 100% 30.30 in 5.0 mi East 5.8 mph - N/A   Overcast
2:55 AM 44.6 °F 41.4 °F 44.6 °F 100% 30.30 in 2.5 mi ENE 5.8 mph - N/A   Drizzle
3:15 AM 44.6 °F 39.7 °F 44.6 °F 100% 30.30 in 2.5 mi ENE 9.2 mph 16.1 mph N/A   Drizzle
3:35 AM 44.6 °F 41.4 °F 44.6 °F 100% 30.31 in 3.0 mi ENE 5.8 mph - N/A   Overcast
3:55 AM 44.6 °F 40.2 °F 44.6 °F 100% 30.31 in 5.0 mi ENE 8.1 mph - N/A   Overcast
4:15 AM 44.6 °F 39.2 °F 44.6 °F 100% 30.31 in 2.5 mi ENE 10.4 mph - N/A   Drizzle
4:35 AM 44.6 °F 40.7 °F 44.6 °F 100% 30.30 in 2.5 mi ENE 6.9 mph - N/A Rain Rain
4:55 AM 44.6 °F 42.2 °F 44.6 °F 100% 30.31 in 3.0 mi East 4.6 mph - N/A   Light Drizzle
5:15 AM 44.6 °F 40.2 °F 44.6 °F 100% 30.30 in 4.0 mi ENE 8.1 mph - N/A   Overcast
5:35 AM 44.6 °F 40.7 °F 44.6 °F 100% 30.31 in 3.0 mi East 6.9 mph - N/A   Light Drizzle
5:55 AM 44.6 °F 42.2 °F 44.6 °F 100% 30.31 in 2.5 mi East 4.6 mph - N/A   Light Drizzle
6:15 AM 44.6 °F 39.2 °F 44.6 °F 100% 30.31 in 4.0 mi East 10.4 mph - N/A   Light Drizzle
6:35 AM 44.6 °F 40.2 °F 44.6 °F 100% 30.31 in 3.0 mi ENE 8.1 mph - N/A   Overcast
6:55 AM 44.6 °F 39.7 °F 44.6 °F 100% 30.31 in 7.0 mi ENE 9.2 mph - N/A   Overcast
7:15 AM 44.6 °F 40.7 °F 44.6 °F 100% 30.32 in 10.0 mi East 6.9 mph - N/A   Overcast
7:35 AM 44.6 °F 41.4 °F 44.6 °F 100% 30.32 in 7.0 mi ENE 5.8 mph 17.3 mph N/A   Drizzle
7:55 AM 44.6 °F 42.2 °F 44.6 °F 100% 30.34 in 2.5 mi NE 4.6 mph - N/A Rain Rain
8:15 AM 44.6 °F 40.7 °F 44.6 °F 100% 30.34 in 3.0 mi ENE 6.9 mph - N/A Rain Light Rain
8:35 AM 44.6 °F 40.2 °F 44.6 °F 100% 30.34 in 1.8 mi East 8.1 mph - N/A   Light Drizzle
8:55 AM 44.6 °F 40.7 °F 44.6 °F 100% 30.34 in 2.5 mi East 6.9 mph - N/A   Overcast
9:15 AM 44.6 °F 41.4 °F 44.6 °F 100% 30.34 in 2.5 mi East 5.8 mph - N/A   Overcast
9:35 AM 44.6 °F 41.4 °F 44.6 °F 100% 30.34 in 4.0 mi East 5.8 mph - N/A   Overcast
9:55 AM 44.6 °F 39.7 °F 44.6 °F 100% 30.32 in 4.0 mi East 9.2 mph - N/A   Overcast
10:15 AM 44.6 °F 41.4 °F 44.6 °F 100% 30.32 in 7.0 mi East 5.8 mph - N/A   Overcast
10:35 AM 44.6 °F 40.7 °F 44.6 °F 100% 30.33 in 7.0 mi East 6.9 mph - N/A   Overcast
10:55 AM 44.6 °F 41.4 °F 44.6 °F 100% 30.34 in 2.5 mi ENE 5.8 mph 16.1 mph N/A   Light Drizzle
11:15 AM 44.6 °F 40.2 °F 44.6 °F 100% 30.33 in 2.0 mi ENE 8.1 mph - N/A   Overcast
11:35 AM 44.6 °F 40.7 °F 44.6 °F 100% 30.32 in 1.8 mi East 6.9 mph - N/A   Overcast
11:55 AM 44.6 °F 43.1 °F 44.6 °F 100% 30.32 in 1.8 mi ENE 3.5 mph - N/A   Overcast
12:15 PM 44.6 °F 41.4 °F 44.6 °F 100% 30.31 in 1.5 mi ENE 5.8 mph - N/A   Drizzle
12:35 PM 44.6 °F 41.4 °F 44.6 °F 100% 30.29 in 2.0 mi East 5.8 mph - N/A   Overcast
12:55 PM 44.6 °F 42.2 °F 44.6 °F 100% 30.29 in 1.2 mi ENE 4.6 mph - N/A   Overcast
1:15 PM 44.6 °F 42.2 °F 44.6 °F 100% 30.28 in 1.5 mi ENE 4.6 mph - N/A   Drizzle
1:35 PM 44.6 °F 40.2 °F 44.6 °F 100% 30.27 in 2.0 mi NE 8.1 mph - N/A   Light Drizzle
1:55 PM 44.6 °F 40.2 °F 44.6 °F 100% 30.26 in 2.0 mi NE 8.1 mph - N/A   Light Drizzle
2:15 PM 44.6 °F 40.7 °F 44.6 °F 100% 30.25 in 1.8 mi ENE 6.9 mph - N/A   Light Drizzle
2:35 PM 42.8 °F 39.3 °F 42.8 °F 100% 30.24 in 2.5 mi ENE 5.8 mph - N/A   Overcast
2:55 PM 42.8 °F 38.6 °F 42.8 °F 100% 30.25 in 2.5 mi ENE 6.9 mph - N/A   Overcast
3:15 PM 42.8 °F 38.6 °F 42.8 °F 100% 30.25 in 3.0 mi ENE 6.9 mph - N/A Rain Light Rain
3:35 PM 42.8 °F 41.1 °F 42.8 °F 100% 30.26 in 2.0 mi ENE 3.5 mph - N/A   Overcast
3:55 PM 42.8 °F 40.1 °F 42.8 °F 100% 30.26 in 2.5 mi ENE 4.6 mph - N/A   Overcast
4:15 PM 42.8 °F 39.3 °F 42.8 °F 100% 30.26 in 4.0 mi ENE 5.8 mph - N/A Rain Light Rain
4:35 PM 42.8 °F 38.0 °F 42.8 °F 100% 30.26 in 3.0 mi ENE 8.1 mph - N/A   Drizzle
4:55 PM 42.8 °F 38.6 °F 42.8 °F 100% 30.26 in 3.0 mi East 6.9 mph - N/A   Overcast
5:15 PM 42.8 °F 38.6 °F 42.8 °F 100% 30.26 in 7.0 mi ENE 6.9 mph - N/A   Overcast
5:35 PM 42.8 °F 39.3 °F 42.8 °F 100% 30.26 in 7.0 mi East 5.8 mph - N/A   Overcast
5:55 PM 42.8 °F 39.3 °F 42.8 °F 100% 30.27 in 5.0 mi ENE 5.8 mph - N/A   Overcast
6:15 PM 42.8 °F 41.1 °F 42.8 °F 100% 30.28 in 2.5 mi ENE 3.5 mph - N/A   Drizzle
6:35 PM 42.8 °F 39.3 °F 42.8 °F 100% 30.27 in 2.5 mi ENE 5.8 mph - N/A   Drizzle
6:55 PM 42.8 °F 38.6 °F 42.8 °F 100% 30.27 in 3.0 mi ENE 6.9 mph - N/A   Light Drizzle
7:15 PM 41.0 °F 34.7 °F 41.0 °F 100% 30.27 in 3.0 mi East 10.4 mph - N/A   Overcast
7:35 PM 41.0 °F 36.4 °F 41.0 °F 100% 30.27 in 4.0 mi ENE 6.9 mph - N/A   Overcast
7:55 PM 41.0 °F 36.4 °F 41.0 °F 100% 30.27 in 4.0 mi ENE 6.9 mph - N/A   Overcast
8:15 PM 41.0 °F 36.4 °F 41.0 °F 100% 30.29 in 3.0 mi ENE 6.9 mph - N/A   Overcast
8:35 PM 41.0 °F 39.0 °F 41.0 °F 100% 30.30 in 2.5 mi NE 3.5 mph - N/A   Overcast
8:55 PM 41.0 °F 37.1 °F 41.0 °F 100% 30.29 in 2.5 mi NE 5.8 mph - N/A   Overcast
9:15 PM 41.0 °F 36.4 °F 41.0 °F 100% 30.28 in 2.0 mi ENE 6.9 mph - N/A   Overcast
9:35 PM 39.2 °F 37.0 °F 39.2 °F 100% 30.28 in 2.0 mi ENE 3.5 mph - N/A   Overcast
9:50 PM 39.2 °F 33.6 °F 39.2 °F 100% 30.26 in 2.0 mi ENE 8.1 mph - N/A   Overcast
10:15 PM 39.2 °F 34.2 °F 39.2 °F 100% 30.26 in 2.0 mi ENE 6.9 mph - N/A   Overcast
10:35 PM 39.2 °F 37.0 °F 39.2 °F 100% 30.26 in 2.0 mi ENE 3.5 mph - N/A   Overcast
10:55 PM 39.2 °F 34.2 °F 39.2 °F 100% 30.25 in 2.0 mi ENE 6.9 mph - N/A   Overcast
11:15 PM 39.2 °F 34.2 °F 39.2 °F 100% 30.24 in 1.8 mi East 6.9 mph - N/A   Overcast
11:35 PM 39.2 °F 34.2 °F 39.2 °F 100% 30.24 in 1.8 mi East 6.9 mph - N/A   Overcast
11:55 PM 39.2 °F 34.2 °F 39.2 °F 100% 30.23 in 1.8 mi East 6.9 mph - N/A   Overcast